sensor_id;sensor_type;location;lat;lon;timestamp;P1;durP1;ratioP1;P2;durP2;ratioP2
6426;SDS011;3246;42.664;23.308;2022-10-16T00:00:08;10.13;;;9.07;;
6426;SDS011;3246;42.664;23.308;2022-10-16T00:02:35;13.37;;;9.20;;
6426;SDS011;3246;42.664;23.308;2022-10-16T00:05:01;13.33;;;7.67;;
6426;SDS011;3246;42.664;23.308;2022-10-16T00:07:27;10.33;;;7.80;;
6426;SDS011;3246;42.664;23.308;2022-10-16T00:09:55;11.73;;;8.97;;
6426;SDS011;3246;42.664;23.308;2022-10-16T00:12:22;12.17;;;8.60;;
6426;SDS011;3246;42.664;23.308;2022-10-16T00:14:48;11.17;;;7.90;;
6426;SDS011;3246;42.664;23.308;2022-10-16T00:17:15;10.57;;;7.87;;
6426;SDS011;3246;42.664;23.308;2022-10-16T00:19:41;13.23;;;8.13;;
6426;SDS011;3246;42.664;23.308;2022-10-16T00:22:08;9.40;;;8.43;;
6426;SDS011;3246;42.664;23.308;2022-10-16T00:24:34;11.50;;;8.20;;
6426;SDS011;3246;42.664;23.308;2022-10-16T00:27:02;8.30;;;7.40;;
6426;SDS011;3246;42.664;23.308;2022-10-16T00:29:29;7.87;;;6.67;;
6426;SDS011;3246;42.664;23.308;2022-10-16T00:31:55;7.40;;;6.37;;
6426;SDS011;3246;42.664;23.308;2022-10-16T00:34:22;8.43;;;6.70;;
6426;SDS011;3246;42.664;23.308;2022-10-16T00:36:48;8.93;;;7.23;;
6426;SDS011;3246;42.664;23.308;2022-10-16T00:39:14;9.07;;;6.87;;
6426;SDS011;3246;42.664;23.308;2022-10-16T00:41:41;7.83;;;6.87;;
6426;SDS011;3246;42.664;23.308;2022-10-16T00:46:50;8.57;;;7.63;;
6426;SDS011;3246;42.664;23.308;2022-10-16T00:49:17;11.30;;;8.73;;
6426;SDS011;3246;42.664;23.308;2022-10-16T00:51:46;8.87;;;6.90;;
6426;SDS011;3246;42.664;23.308;2022-10-16T00:54:13;10.17;;;7.50;;
6426;SDS011;3246;42.664;23.308;2022-10-16T00:56:40;8.27;;;7.50;;
6426;SDS011;3246;42.664;23.308;2022-10-16T00:59:09;7.70;;;6.90;;
6426;SDS011;3246;42.664;23.308;2022-10-16T01:01:37;6.70;;;6.10;;
6426;SDS011;3246;42.664;23.308;2022-10-16T01:04:05;6.97;;;6.27;;
6426;SDS011;3246;42.664;23.308;2022-10-16T01:06:34;10.27;;;6.97;;
6426;SDS011;3246;42.664;23.308;2022-10-16T01:09:14;7.33;;;6.63;;
6426;SDS011;3246;42.664;23.308;2022-10-16T01:11:44;11.83;;;7.13;;
6426;SDS011;3246;42.664;23.308;2022-10-16T01:14:15;9.27;;;7.10;;
6426;SDS011;3246;42.664;23.308;2022-10-16T01:16:46;8.50;;;7.37;;
6426;SDS011;3246;42.664;23.308;2022-10-16T01:19:18;12.83;;;6.93;;
6426;SDS011;3246;42.664;23.308;2022-10-16T01:21:46;7.40;;;6.60;;
6426;SDS011;3246;42.664;23.308;2022-10-16T01:24:17;7.07;;;6.43;;
6426;SDS011;3246;42.664;23.308;2022-10-16T01:26:49;8.20;;;7.40;;
6426;SDS011;3246;42.664;23.308;2022-10-16T01:29:20;7.43;;;6.50;;
6426;SDS011;3246;42.664;23.308;2022-10-16T01:31:49;7.47;;;6.77;;
6426;SDS011;3246;42.664;23.308;2022-10-16T01:34:17;8.20;;;6.73;;
6426;SDS011;3246;42.664;23.308;2022-10-16T01:36:45;7.77;;;7.07;;
6426;SDS011;3246;42.664;23.308;2022-10-16T01:39:13;12.87;;;6.93;;
6426;SDS011;3246;42.664;23.308;2022-10-16T01:41:41;10.73;;;7.10;;
6426;SDS011;3246;42.664;23.308;2022-10-16T01:44:10;10.30;;;6.50;;
6426;SDS011;3246;42.664;23.308;2022-10-16T01:46:39;9.50;;;6.73;;
6426;SDS011;3246;42.664;23.308;2022-10-16T01:49:06;10.10;;;6.20;;
6426;SDS011;3246;42.664;23.308;2022-10-16T01:51:34;9.60;;;7.33;;
6426;SDS011;3246;42.664;23.308;2022-10-16T01:54:01;8.37;;;7.57;;
6426;SDS011;3246;42.664;23.308;2022-10-16T01:56:28;10.10;;;6.90;;
6426;SDS011;3246;42.664;23.308;2022-10-16T01:58:56;6.87;;;5.97;;
6426;SDS011;3246;42.664;23.308;2022-10-16T02:01:24;8.03;;;6.57;;
6426;SDS011;3246;42.664;23.308;2022-10-16T02:03:54;10.33;;;7.43;;
6426;SDS011;3246;42.664;23.308;2022-10-16T02:06:23;11.47;;;7.60;;
6426;SDS011;3246;42.664;23.308;2022-10-16T02:08:50;12.97;;;7.77;;
6426;SDS011;3246;42.664;23.308;2022-10-16T02:11:16;9.33;;;8.27;;
6426;SDS011;3246;42.664;23.308;2022-10-16T02:13:43;9.77;;;7.73;;
6426;SDS011;3246;42.664;23.308;2022-10-16T02:16:11;11.93;;;7.30;;
6426;SDS011;3246;42.664;23.308;2022-10-16T02:18:39;8.03;;;6.60;;
6426;SDS011;3246;42.664;23.308;2022-10-16T02:21:09;9.57;;;7.13;;
6426;SDS011;3246;42.664;23.308;2022-10-16T02:23:42;7.43;;;6.70;;
6426;SDS011;3246;42.664;23.308;2022-10-16T02:26:12;10.90;;;7.47;;
6426;SDS011;3246;42.664;23.308;2022-10-16T02:28:41;7.77;;;6.83;;
6426;SDS011;3246;42.664;23.308;2022-10-16T02:31:08;9.83;;;7.23;;
6426;SDS011;3246;42.664;23.308;2022-10-16T02:33:35;12.87;;;6.83;;
6426;SDS011;3246;42.664;23.308;2022-10-16T02:36:03;8.70;;;7.03;;
6426;SDS011;3246;42.664;23.308;2022-10-16T02:38:31;10.07;;;7.43;;
6426;SDS011;3246;42.664;23.308;2022-10-16T02:40:58;8.40;;;6.90;;
6426;SDS011;3246;42.664;23.308;2022-10-16T02:43:24;6.67;;;5.97;;
6426;SDS011;3246;42.664;23.308;2022-10-16T02:45:51;8.07;;;7.27;;
6426;SDS011;3246;42.664;23.308;2022-10-16T02:48:17;8.10;;;6.87;;
6426;SDS011;3246;42.664;23.308;2022-10-16T02:50:44;9.03;;;8.13;;
6426;SDS011;3246;42.664;23.308;2022-10-16T02:53:10;11.37;;;7.93;;
6426;SDS011;3246;42.664;23.308;2022-10-16T02:55:38;11.47;;;6.53;;
6426;SDS011;3246;42.664;23.308;2022-10-16T02:58:05;10.17;;;7.57;;
6426;SDS011;3246;42.664;23.308;2022-10-16T03:00:31;8.40;;;7.10;;
6426;SDS011;3246;42.664;23.308;2022-10-16T03:02:58;11.63;;;8.77;;
6426;SDS011;3246;42.664;23.308;2022-10-16T03:05:24;14.03;;;9.57;;
6426;SDS011;3246;42.664;23.308;2022-10-16T03:07:51;19.17;;;13.97;;
6426;SDS011;3246;42.664;23.308;2022-10-16T03:10:18;20.73;;;12.23;;
6426;SDS011;3246;42.664;23.308;2022-10-16T03:12:46;15.07;;;11.20;;
6426;SDS011;3246;42.664;23.308;2022-10-16T03:15:13;19.60;;;11.23;;
6426;SDS011;3246;42.664;23.308;2022-10-16T03:17:39;16.00;;;10.67;;
6426;SDS011;3246;42.664;23.308;2022-10-16T03:20:06;15.03;;;10.40;;
6426;SDS011;3246;42.664;23.308;2022-10-16T03:22:32;13.70;;;10.10;;
6426;SDS011;3246;42.664;23.308;2022-10-16T03:24:59;11.10;;;9.20;;
6426;SDS011;3246;42.664;23.308;2022-10-16T03:27:25;15.00;;;9.90;;
6426;SDS011;3246;42.664;23.308;2022-10-16T03:29:53;14.07;;;9.90;;
6426;SDS011;3246;42.664;23.308;2022-10-16T03:32:20;15.27;;;9.57;;
6426;SDS011;3246;42.664;23.308;2022-10-16T03:34:46;12.27;;;9.63;;
6426;SDS011;3246;42.664;23.308;2022-10-16T03:37:13;11.47;;;7.80;;
6426;SDS011;3246;42.664;23.308;2022-10-16T03:39:39;11.97;;;9.47;;
6426;SDS011;3246;42.664;23.308;2022-10-16T03:42:06;17.20;;;9.00;;
6426;SDS011;3246;42.664;23.308;2022-10-16T03:44:32;12.03;;;9.00;;
6426;SDS011;3246;42.664;23.308;2022-10-16T03:47:00;12.30;;;8.93;;
6426;SDS011;3246;42.664;23.308;2022-10-16T03:49:27;12.07;;;8.37;;
6426;SDS011;3246;42.664;23.308;2022-10-16T03:51:53;23.57;;;9.10;;
6426;SDS011;3246;42.664;23.308;2022-10-16T03:54:20;13.77;;;9.00;;
6426;SDS011;3246;42.664;23.308;2022-10-16T03:56:47;13.10;;;9.60;;
6426;SDS011;3246;42.664;23.308;2022-10-16T03:59:13;9.73;;;8.37;;
6426;SDS011;3246;42.664;23.308;2022-10-16T04:01:40;12.20;;;9.07;;
6426;SDS011;3246;42.664;23.308;2022-10-16T04:04:08;13.10;;;9.23;;
6426;SDS011;3246;42.664;23.308;2022-10-16T04:06:34;11.60;;;9.10;;
6426;SDS011;3246;42.664;23.308;2022-10-16T04:09:01;14.00;;;8.47;;
6426;SDS011;3246;42.664;23.308;2022-10-16T04:11:27;10.33;;;7.60;;
6426;SDS011;3246;42.664;23.308;2022-10-16T04:13:54;9.97;;;8.70;;
6426;SDS011;3246;42.664;23.308;2022-10-16T04:16:20;12.87;;;8.53;;
6426;SDS011;3246;42.664;23.308;2022-10-16T04:18:47;12.27;;;9.10;;
6426;SDS011;3246;42.664;23.308;2022-10-16T04:21:15;10.27;;;8.63;;
6426;SDS011;3246;42.664;23.308;2022-10-16T04:23:41;12.57;;;9.37;;
6426;SDS011;3246;42.664;23.308;2022-10-16T04:26:08;13.07;;;8.97;;
6426;SDS011;3246;42.664;23.308;2022-10-16T04:28:35;9.17;;;8.23;;
6426;SDS011;3246;42.664;23.308;2022-10-16T04:31:03;12.40;;;10.13;;
6426;SDS011;3246;42.664;23.308;2022-10-16T04:33:29;13.13;;;10.63;;
6426;SDS011;3246;42.664;23.308;2022-10-16T04:35:56;11.07;;;9.63;;
6426;SDS011;3246;42.664;23.308;2022-10-16T04:38:24;13.30;;;10.13;;
6426;SDS011;3246;42.664;23.308;2022-10-16T04:40:51;13.23;;;9.17;;
6426;SDS011;3246;42.664;23.308;2022-10-16T04:43:18;20.80;;;9.33;;
6426;SDS011;3246;42.664;23.308;2022-10-16T04:45:44;12.77;;;8.63;;
6426;SDS011;3246;42.664;23.308;2022-10-16T04:48:11;20.40;;;8.70;;
6426;SDS011;3246;42.664;23.308;2022-10-16T04:50:37;9.50;;;8.50;;
6426;SDS011;3246;42.664;23.308;2022-10-16T04:53:04;9.33;;;8.20;;
6426;SDS011;3246;42.664;23.308;2022-10-16T04:55:32;10.23;;;8.33;;
6426;SDS011;3246;42.664;23.308;2022-10-16T04:57:58;11.13;;;8.13;;
6426;SDS011;3246;42.664;23.308;2022-10-16T05:00:25;14.87;;;10.77;;
6426;SDS011;3246;42.664;23.308;2022-10-16T05:02:51;15.37;;;9.60;;
6426;SDS011;3246;42.664;23.308;2022-10-16T05:05:18;15.03;;;10.53;;
6426;SDS011;3246;42.664;23.308;2022-10-16T05:07:45;16.27;;;11.03;;
6426;SDS011;3246;42.664;23.308;2022-10-16T05:10:11;18.23;;;10.47;;
6426;SDS011;3246;42.664;23.308;2022-10-16T05:12:39;14.57;;;9.97;;
6426;SDS011;3246;42.664;23.308;2022-10-16T05:15:06;11.53;;;10.23;;
6426;SDS011;3246;42.664;23.308;2022-10-16T05:17:33;16.23;;;9.23;;
6426;SDS011;3246;42.664;23.308;2022-10-16T05:19:59;11.87;;;9.00;;
6426;SDS011;3246;42.664;23.308;2022-10-16T05:22:26;10.57;;;9.47;;
6426;SDS011;3246;42.664;23.308;2022-10-16T05:24:52;19.20;;;10.77;;
6426;SDS011;3246;42.664;23.308;2022-10-16T05:27:19;14.40;;;9.00;;
6426;SDS011;3246;42.664;23.308;2022-10-16T05:29:47;11.50;;;9.37;;
6426;SDS011;3246;42.664;23.308;2022-10-16T05:32:14;11.47;;;8.87;;
6426;SDS011;3246;42.664;23.308;2022-10-16T05:34:40;13.90;;;9.70;;
6426;SDS011;3246;42.664;23.308;2022-10-16T05:37:07;15.57;;;9.00;;
6426;SDS011;3246;42.664;23.308;2022-10-16T05:39:33;12.33;;;8.70;;
6426;SDS011;3246;42.664;23.308;2022-10-16T05:42:01;13.03;;;9.43;;
6426;SDS011;3246;42.664;23.308;2022-10-16T05:44:28;18.20;;;9.40;;
6426;SDS011;3246;42.664;23.308;2022-10-16T05:46:56;9.50;;;8.37;;
6426;SDS011;3246;42.664;23.308;2022-10-16T05:49:22;14.70;;;9.97;;
6426;SDS011;3246;42.664;23.308;2022-10-16T05:51:49;13.60;;;9.63;;
6426;SDS011;3246;42.664;23.308;2022-10-16T05:54:16;19.07;;;10.83;;
6426;SDS011;3246;42.664;23.308;2022-10-16T05:56:43;13.07;;;10.23;;
6426;SDS011;3246;42.664;23.308;2022-10-16T05:59:09;10.70;;;9.70;;
6426;SDS011;3246;42.664;23.308;2022-10-16T06:01:36;34.17;;;24.30;;
6426;SDS011;3246;42.664;23.308;2022-10-16T06:04:03;12.93;;;10.53;;
6426;SDS011;3246;42.664;23.308;2022-10-16T06:06:30;13.67;;;10.27;;
6426;SDS011;3246;42.664;23.308;2022-10-16T06:08:57;14.03;;;11.50;;
6426;SDS011;3246;42.664;23.308;2022-10-16T06:11:25;14.27;;;10.93;;
6426;SDS011;3246;42.664;23.308;2022-10-16T06:13:52;13.87;;;10.63;;
6426;SDS011;3246;42.664;23.308;2022-10-16T06:16:19;12.40;;;10.63;;
6426;SDS011;3246;42.664;23.308;2022-10-16T06:18:46;16.47;;;10.57;;
6426;SDS011;3246;42.664;23.308;2022-10-16T06:21:17;21.10;;;10.83;;
6426;SDS011;3246;42.664;23.308;2022-10-16T06:23:43;14.70;;;11.30;;
6426;SDS011;3246;42.664;23.308;2022-10-16T06:26:11;23.23;;;10.27;;
6426;SDS011;3246;42.664;23.308;2022-10-16T06:28:38;12.40;;;10.30;;
6426;SDS011;3246;42.664;23.308;2022-10-16T06:31:05;12.90;;;9.60;;
6426;SDS011;3246;42.664;23.308;2022-10-16T06:33:32;23.40;;;15.00;;
6426;SDS011;3246;42.664;23.308;2022-10-16T06:36:02;31.10;;;21.60;;
6426;SDS011;3246;42.664;23.308;2022-10-16T06:38:30;20.37;;;14.50;;
6426;SDS011;3246;42.664;23.308;2022-10-16T06:40:56;11.73;;;10.00;;
6426;SDS011;3246;42.664;23.308;2022-10-16T06:43:23;11.57;;;9.97;;
6426;SDS011;3246;42.664;23.308;2022-10-16T06:45:51;11.83;;;10.23;;
6426;SDS011;3246;42.664;23.308;2022-10-16T06:48:17;16.47;;;10.23;;
6426;SDS011;3246;42.664;23.308;2022-10-16T06:50:44;12.20;;;10.27;;
6426;SDS011;3246;42.664;23.308;2022-10-16T06:53:10;10.80;;;9.70;;
6426;SDS011;3246;42.664;23.308;2022-10-16T06:55:38;16.60;;;10.47;;
6426;SDS011;3246;42.664;23.308;2022-10-16T06:58:04;11.93;;;9.23;;
6426;SDS011;3246;42.664;23.308;2022-10-16T07:00:31;14.20;;;11.37;;
6426;SDS011;3246;42.664;23.308;2022-10-16T07:02:57;10.97;;;9.33;;
6426;SDS011;3246;42.664;23.308;2022-10-16T07:05:24;10.50;;;9.50;;
6426;SDS011;3246;42.664;23.308;2022-10-16T07:07:50;16.43;;;9.90;;
6426;SDS011;3246;42.664;23.308;2022-10-16T07:10:17;12.30;;;10.30;;
6426;SDS011;3246;42.664;23.308;2022-10-16T07:12:45;15.27;;;10.33;;
6426;SDS011;3246;42.664;23.308;2022-10-16T07:15:11;11.60;;;9.70;;
6426;SDS011;3246;42.664;23.308;2022-10-16T07:17:38;11.40;;;9.83;;
6426;SDS011;3246;42.664;23.308;2022-10-16T07:20:05;14.17;;;10.73;;
6426;SDS011;3246;42.664;23.308;2022-10-16T07:22:31;14.33;;;12.37;;
6426;SDS011;3246;42.664;23.308;2022-10-16T07:24:58;11.53;;;10.43;;
6426;SDS011;3246;42.664;23.308;2022-10-16T07:27:24;17.10;;;11.43;;
6426;SDS011;3246;42.664;23.308;2022-10-16T07:29:52;16.10;;;11.23;;
6426;SDS011;3246;42.664;23.308;2022-10-16T07:32:19;14.30;;;11.23;;
6426;SDS011;3246;42.664;23.308;2022-10-16T07:34:45;13.10;;;11.43;;
6426;SDS011;3246;42.664;23.308;2022-10-16T07:37:12;13.23;;;11.83;;
6426;SDS011;3246;42.664;23.308;2022-10-16T07:39:38;13.33;;;10.27;;
6426;SDS011;3246;42.664;23.308;2022-10-16T07:42:05;14.33;;;11.83;;
6426;SDS011;3246;42.664;23.308;2022-10-16T07:44:32;14.20;;;10.40;;
6426;SDS011;3246;42.664;23.308;2022-10-16T07:47:00;22.23;;;11.43;;
6426;SDS011;3246;42.664;23.308;2022-10-16T07:49:27;15.77;;;10.75;;
6426;SDS011;3246;42.664;23.308;2022-10-16T07:51:54;13.48;;;11.25;;
6426;SDS011;3246;42.664;23.308;2022-10-16T07:54:21;12.35;;;11.15;;
6426;SDS011;3246;42.664;23.308;2022-10-16T07:56:47;12.70;;;11.05;;
6426;SDS011;3246;42.664;23.308;2022-10-16T07:59:14;13.27;;;11.70;;
6426;SDS011;3246;42.664;23.308;2022-10-16T08:01:40;15.02;;;11.90;;
6426;SDS011;3246;42.664;23.308;2022-10-16T08:04:09;13.82;;;10.32;;
6426;SDS011;3246;42.664;23.308;2022-10-16T08:06:36;16.45;;;10.63;;
6426;SDS011;3246;42.664;23.308;2022-10-16T08:09:03;11.25;;;10.05;;
6426;SDS011;3246;42.664;23.308;2022-10-16T08:11:30;10.55;;;8.63;;
6426;SDS011;3246;42.664;23.308;2022-10-16T08:13:57;17.13;;;9.48;;
6426;SDS011;3246;42.664;23.308;2022-10-16T08:16:23;9.68;;;8.13;;
6426;SDS011;3246;42.664;23.308;2022-10-16T08:18:50;9.07;;;7.80;;
6426;SDS011;3246;42.664;23.308;2022-10-16T08:21:19;12.90;;;7.10;;
6426;SDS011;3246;42.664;23.308;2022-10-16T08:23:45;8.38;;;6.93;;
6426;SDS011;3246;42.664;23.308;2022-10-16T08:26:12;8.52;;;7.70;;
6426;SDS011;3246;42.664;23.308;2022-10-16T08:28:39;7.60;;;6.93;;
6426;SDS011;3246;42.664;23.308;2022-10-16T08:31:06;8.95;;;8.05;;
6426;SDS011;3246;42.664;23.308;2022-10-16T08:33:33;8.20;;;7.32;;
6426;SDS011;3246;42.664;23.308;2022-10-16T08:36:00;7.88;;;6.45;;
6426;SDS011;3246;42.664;23.308;2022-10-16T08:38:28;8.18;;;7.38;;
6426;SDS011;3246;42.664;23.308;2022-10-16T08:40:56;9.40;;;6.00;;
6426;SDS011;3246;42.664;23.308;2022-10-16T08:43:36;6.47;;;5.88;;
6426;SDS011;3246;42.664;23.308;2022-10-16T08:46:19;11.00;;;6.20;;
6426;SDS011;3246;42.664;23.308;2022-10-16T08:48:48;6.80;;;6.20;;
6426;SDS011;3246;42.664;23.308;2022-10-16T08:51:18;7.35;;;6.10;;
6426;SDS011;3246;42.664;23.308;2022-10-16T08:53:49;5.63;;;5.13;;
6426;SDS011;3246;42.664;23.308;2022-10-16T08:56:17;9.60;;;5.47;;
6426;SDS011;3246;42.664;23.308;2022-10-16T08:58:43;7.05;;;6.28;;
6426;SDS011;3246;42.664;23.308;2022-10-16T09:01:11;7.95;;;5.18;;
6426;SDS011;3246;42.664;23.308;2022-10-16T09:03:42;5.82;;;5.28;;
6426;SDS011;3246;42.664;23.308;2022-10-16T09:06:16;5.03;;;4.55;;
6426;SDS011;3246;42.664;23.308;2022-10-16T09:08:46;5.85;;;5.25;;
6426;SDS011;3246;42.664;23.308;2022-10-16T09:11:20;4.85;;;4.45;;
6426;SDS011;3246;42.664;23.308;2022-10-16T09:13:50;3.80;;;3.50;;
6426;SDS011;3246;42.664;23.308;2022-10-16T09:16:21;6.25;;;3.20;;
6426;SDS011;3246;42.664;23.308;2022-10-16T09:18:51;6.20;;;4.32;;
6426;SDS011;3246;42.664;23.308;2022-10-16T09:21:21;5.28;;;4.25;;
6426;SDS011;3246;42.664;23.308;2022-10-16T09:23:49;4.28;;;3.65;;
6426;SDS011;3246;42.664;23.308;2022-10-16T09:26:17;5.63;;;4.53;;
6426;SDS011;3246;42.664;23.308;2022-10-16T09:28:44;4.93;;;4.43;;
6426;SDS011;3246;42.664;23.308;2022-10-16T09:31:13;4.95;;;3.92;;
6426;SDS011;3246;42.664;23.308;2022-10-16T09:33:41;3.72;;;3.28;;
6426;SDS011;3246;42.664;23.308;2022-10-16T09:36:08;4.68;;;3.65;;
6426;SDS011;3246;42.664;23.308;2022-10-16T09:38:36;4.25;;;3.85;;
6426;SDS011;3246;42.664;23.308;2022-10-16T09:41:03;4.78;;;3.83;;
6426;SDS011;3246;42.664;23.308;2022-10-16T09:43:40;4.63;;;3.90;;
6426;SDS011;3246;42.664;23.308;2022-10-16T09:46:08;3.92;;;3.63;;
6426;SDS011;3246;42.664;23.308;2022-10-16T09:48:36;4.30;;;3.38;;
6426;SDS011;3246;42.664;23.308;2022-10-16T09:51:04;3.50;;;3.17;;
6426;SDS011;3246;42.664;23.308;2022-10-16T09:53:40;5.28;;;3.58;;
6426;SDS011;3246;42.664;23.308;2022-10-16T09:56:09;5.57;;;3.78;;
6426;SDS011;3246;42.664;23.308;2022-10-16T09:58:38;6.70;;;4.22;;
6426;SDS011;3246;42.664;23.308;2022-10-16T10:01:11;4.63;;;4.22;;
6426;SDS011;3246;42.664;23.308;2022-10-16T10:03:39;5.95;;;3.75;;
6426;SDS011;3246;42.664;23.308;2022-10-16T10:06:15;4.38;;;3.63;;
6426;SDS011;3246;42.664;23.308;2022-10-16T10:08:52;4.85;;;3.25;;
6426;SDS011;3246;42.664;23.308;2022-10-16T10:14:03;7.63;;;4.15;;
6426;SDS011;3246;42.664;23.308;2022-10-16T10:16:31;4.80;;;4.38;;
6426;SDS011;3246;42.664;23.308;2022-10-16T10:18:58;7.68;;;4.13;;
6426;SDS011;3246;42.664;23.308;2022-10-16T10:21:24;6.05;;;4.03;;
6426;SDS011;3246;42.664;23.308;2022-10-16T10:23:54;4.07;;;3.63;;
6426;SDS011;3246;42.664;23.308;2022-10-16T10:26:22;7.25;;;4.18;;
6426;SDS011;3246;42.664;23.308;2022-10-16T10:28:52;3.83;;;3.28;;
6426;SDS011;3246;42.664;23.308;2022-10-16T10:31:21;10.52;;;3.88;;
6426;SDS011;3246;42.664;23.308;2022-10-16T10:33:54;3.33;;;3.03;;
6426;SDS011;3246;42.664;23.308;2022-10-16T10:36:27;7.00;;;3.60;;
6426;SDS011;3246;42.664;23.308;2022-10-16T10:38:56;3.67;;;3.35;;
6426;SDS011;3246;42.664;23.308;2022-10-16T10:44:11;5.03;;;3.72;;
6426;SDS011;3246;42.664;23.308;2022-10-16T10:46:41;5.30;;;3.42;;
6426;SDS011;3246;42.664;23.308;2022-10-16T10:51:55;3.83;;;3.53;;
6426;SDS011;3246;42.664;23.308;2022-10-16T10:54:26;4.93;;;3.20;;
6426;SDS011;3246;42.664;23.308;2022-10-16T10:56:57;5.30;;;3.55;;
6426;SDS011;3246;42.664;23.308;2022-10-16T11:02:18;5.82;;;3.78;;
6426;SDS011;3246;42.664;23.308;2022-10-16T11:05:00;2.95;;;2.75;;
6426;SDS011;3246;42.664;23.308;2022-10-16T11:07:32;4.13;;;3.78;;
6426;SDS011;3246;42.664;23.308;2022-10-16T11:10:03;2.75;;;2.55;;
6426;SDS011;3246;42.664;23.308;2022-10-16T11:12:30;3.15;;;2.85;;
6426;SDS011;3246;42.664;23.308;2022-10-16T11:15:00;3.75;;;3.45;;
6426;SDS011;3246;42.664;23.308;2022-10-16T11:17:28;4.05;;;3.75;;
6426;SDS011;3246;42.664;23.308;2022-10-16T11:19:57;3.33;;;3.10;;
6426;SDS011;3246;42.664;23.308;2022-10-16T11:22:25;3.08;;;2.83;;
6426;SDS011;3246;42.664;23.308;2022-10-16T11:24:58;4.50;;;3.70;;
6426;SDS011;3246;42.664;23.308;2022-10-16T11:27:30;3.53;;;3.13;;
6426;SDS011;3246;42.664;23.308;2022-10-16T11:29:59;3.40;;;3.10;;
6426;SDS011;3246;42.664;23.308;2022-10-16T11:32:28;3.78;;;3.50;;
6426;SDS011;3246;42.664;23.308;2022-10-16T11:34:57;4.97;;;3.50;;
6426;SDS011;3246;42.664;23.308;2022-10-16T11:37:27;6.25;;;3.40;;
6426;SDS011;3246;42.664;23.308;2022-10-16T11:39:58;3.17;;;2.83;;
6426;SDS011;3246;42.664;23.308;2022-10-16T11:42:30;4.43;;;3.08;;
6426;SDS011;3246;42.664;23.308;2022-10-16T11:45:00;3.97;;;2.67;;
6426;SDS011;3246;42.664;23.308;2022-10-16T11:47:31;2.85;;;2.50;;
6426;SDS011;3246;42.664;23.308;2022-10-16T11:50:00;6.13;;;2.97;;
6426;SDS011;3246;42.664;23.308;2022-10-16T11:52:28;3.22;;;3.03;;
6426;SDS011;3246;42.664;23.308;2022-10-16T11:54:59;6.25;;;3.35;;
6426;SDS011;3246;42.664;23.308;2022-10-16T11:57:28;3.28;;;3.00;;
6426;SDS011;3246;42.664;23.308;2022-10-16T11:59:55;4.65;;;2.92;;
6426;SDS011;3246;42.664;23.308;2022-10-16T12:02:28;4.05;;;3.00;;
6426;SDS011;3246;42.664;23.308;2022-10-16T12:04:58;3.17;;;2.97;;
6426;SDS011;3246;42.664;23.308;2022-10-16T12:07:32;3.72;;;3.40;;
6426;SDS011;3246;42.664;23.308;2022-10-16T12:10:10;3.38;;;2.55;;
6426;SDS011;3246;42.664;23.308;2022-10-16T12:12:38;4.32;;;3.10;;
6426;SDS011;3246;42.664;23.308;2022-10-16T12:15:18;6.20;;;3.08;;
6426;SDS011;3246;42.664;23.308;2022-10-16T12:17:44;3.28;;;2.97;;
6426;SDS011;3246;42.664;23.308;2022-10-16T12:20:22;2.75;;;2.60;;
6426;SDS011;3246;42.664;23.308;2022-10-16T12:22:49;4.63;;;3.50;;
6426;SDS011;3246;42.664;23.308;2022-10-16T12:25:21;3.83;;;3.20;;
6426;SDS011;3246;42.664;23.308;2022-10-16T12:27:53;7.75;;;3.33;;
6426;SDS011;3246;42.664;23.308;2022-10-16T12:30:22;6.50;;;3.90;;
6426;SDS011;3246;42.664;23.308;2022-10-16T12:32:52;2.63;;;2.40;;
6426;SDS011;3246;42.664;23.308;2022-10-16T12:35:20;3.55;;;3.25;;
6426;SDS011;3246;42.664;23.308;2022-10-16T12:37:47;3.67;;;3.38;;
6426;SDS011;3246;42.664;23.308;2022-10-16T12:40:15;5.18;;;3.20;;
6426;SDS011;3246;42.664;23.308;2022-10-16T12:42:44;4.38;;;2.83;;
6426;SDS011;3246;42.664;23.308;2022-10-16T12:45:22;4.53;;;3.58;;
6426;SDS011;3246;42.664;23.308;2022-10-16T12:47:50;3.45;;;3.08;;
6426;SDS011;3246;42.664;23.308;2022-10-16T12:50:24;7.10;;;3.05;;
6426;SDS011;3246;42.664;23.308;2022-10-16T12:52:51;5.50;;;3.47;;
6426;SDS011;3246;42.664;23.308;2022-10-16T12:55:18;2.88;;;2.63;;
6426;SDS011;3246;42.664;23.308;2022-10-16T12:57:48;5.50;;;2.88;;
6426;SDS011;3246;42.664;23.308;2022-10-16T13:00:20;7.47;;;4.22;;
6426;SDS011;3246;42.664;23.308;2022-10-16T13:02:51;4.97;;;3.22;;
6426;SDS011;3246;42.664;23.308;2022-10-16T13:05:26;3.00;;;2.78;;
6426;SDS011;3246;42.664;23.308;2022-10-16T13:07:56;4.93;;;3.53;;
6426;SDS011;3246;42.664;23.308;2022-10-16T13:10:26;3.15;;;2.88;;
6426;SDS011;3246;42.664;23.308;2022-10-16T13:13:08;3.22;;;2.95;;
6426;SDS011;3246;42.664;23.308;2022-10-16T13:15:51;3.65;;;3.40;;
6426;SDS011;3246;42.664;23.308;2022-10-16T13:18:22;3.95;;;3.45;;
6426;SDS011;3246;42.664;23.308;2022-10-16T13:20:54;2.92;;;2.72;;
6426;SDS011;3246;42.664;23.308;2022-10-16T13:23:23;2.95;;;2.65;;
6426;SDS011;3246;42.664;23.308;2022-10-16T13:25:56;6.13;;;2.90;;
6426;SDS011;3246;42.664;23.308;2022-10-16T13:28:28;2.88;;;2.58;;
6426;SDS011;3246;42.664;23.308;2022-10-16T13:30:56;4.13;;;3.42;;
6426;SDS011;3246;42.664;23.308;2022-10-16T13:33:25;5.03;;;3.20;;
6426;SDS011;3246;42.664;23.308;2022-10-16T13:35:55;6.38;;;3.15;;
6426;SDS011;3246;42.664;23.308;2022-10-16T13:38:23;2.83;;;2.20;;
6426;SDS011;3246;42.664;23.308;2022-10-16T13:40:51;2.97;;;2.78;;
6426;SDS011;3246;42.664;23.308;2022-10-16T13:43:18;9.13;;;3.20;;
6426;SDS011;3246;42.664;23.308;2022-10-16T13:45:53;3.70;;;2.58;;
6426;SDS011;3246;42.664;23.308;2022-10-16T13:48:20;2.97;;;2.70;;
6426;SDS011;3246;42.664;23.308;2022-10-16T13:50:47;4.35;;;2.85;;
6426;SDS011;3246;42.664;23.308;2022-10-16T13:53:23;2.85;;;2.53;;
6426;SDS011;3246;42.664;23.308;2022-10-16T13:55:50;5.88;;;2.97;;
6426;SDS011;3246;42.664;23.308;2022-10-16T13:58:16;2.30;;;2.10;;
6426;SDS011;3246;42.664;23.308;2022-10-16T14:00:54;2.88;;;2.17;;
6426;SDS011;3246;42.664;23.308;2022-10-16T14:03:21;2.97;;;2.67;;
6426;SDS011;3246;42.664;23.308;2022-10-16T14:05:48;3.42;;;2.60;;
6426;SDS011;3246;42.664;23.308;2022-10-16T14:08:15;2.20;;;2.00;;
6426;SDS011;3246;42.664;23.308;2022-10-16T14:10:42;2.15;;;2.05;;
6426;SDS011;3246;42.664;23.308;2022-10-16T14:13:12;2.83;;;2.60;;
6426;SDS011;3246;42.664;23.308;2022-10-16T14:15:45;5.05;;;2.30;;
6426;SDS011;3246;42.664;23.308;2022-10-16T14:18:15;6.18;;;2.40;;
6426;SDS011;3246;42.664;23.308;2022-10-16T14:20:44;7.70;;;2.72;;
6426;SDS011;3246;42.664;23.308;2022-10-16T14:23:18;2.50;;;2.30;;
6426;SDS011;3246;42.664;23.308;2022-10-16T14:25:45;3.42;;;2.75;;
6426;SDS011;3246;42.664;23.308;2022-10-16T14:28:15;3.22;;;2.30;;
6426;SDS011;3246;42.664;23.308;2022-10-16T14:30:48;2.72;;;2.17;;
6426;SDS011;3246;42.664;23.308;2022-10-16T14:33:21;2.08;;;1.88;;
6426;SDS011;3246;42.664;23.308;2022-10-16T14:35:57;4.28;;;2.33;;
6426;SDS011;3246;42.664;23.308;2022-10-16T14:38:25;2.83;;;2.63;;
6426;SDS011;3246;42.664;23.308;2022-10-16T14:40:51;2.65;;;2.42;;
6426;SDS011;3246;42.664;23.308;2022-10-16T14:43:19;3.17;;;2.72;;
6426;SDS011;3246;42.664;23.308;2022-10-16T14:45:49;2.50;;;2.30;;
6426;SDS011;3246;42.664;23.308;2022-10-16T14:48:17;10.05;;;2.83;;
6426;SDS011;3246;42.664;23.308;2022-10-16T14:50:46;2.95;;;2.65;;
6426;SDS011;3246;42.664;23.308;2022-10-16T14:53:13;2.53;;;2.33;;
6426;SDS011;3246;42.664;23.308;2022-10-16T14:55:40;2.55;;;1.98;;
6426;SDS011;3246;42.664;23.308;2022-10-16T14:58:09;3.00;;;2.03;;
6426;SDS011;3246;42.664;23.308;2022-10-16T15:00:36;2.42;;;2.22;;
6426;SDS011;3246;42.664;23.308;2022-10-16T15:03:02;2.78;;;2.42;;
6426;SDS011;3246;42.664;23.308;2022-10-16T15:05:29;5.40;;;2.42;;
6426;SDS011;3246;42.664;23.308;2022-10-16T15:07:58;4.38;;;2.97;;
6426;SDS011;3246;42.664;23.308;2022-10-16T15:10:25;2.50;;;2.30;;
6426;SDS011;3246;42.664;23.308;2022-10-16T15:12:53;2.85;;;2.13;;